CYJT

Stephenville Airport

Stephenville, Canada
TAF CYJT 192338Z 2000/2024 05008KT P6SM SCT020 TEMPO 2000/2006 BKN020 FM200600 05010G20KT P6SM SCT030 TEMPO 2006/2014 BKN030 BECMG 2006/2008 05010KT FM201400 08010KT P6SM SCT040 BECMG 2019/2021 29008KT RMK NXT FCST BY 200600Z
Issued Valid From Valid To
Sep-19 @ 23:38 UTC
(an hour ago)
Sep-20 @ 00:00 UTC
(41 minutes ago)
Sep-21 @ 00:00 UTC
(in 23 hours)
Sep-20 @ 00:00 to Sep-20 @ 06:00
TAF CYJT 192338Z 2000/2024 05008KT P6SM SCT020
Wind Visibility Clouds
50° at 8 knots Greater than 6 miles
  • Scattered at 2,000' AGL
Temporary Sep-20 @ 00:00 to Sep-20 @ 06:00
TEMPO 2000/2006 BKN020
Clouds
  • Broken at 2,000' AGL
Temporary Sep-20 @ 06:00 to Sep-20 @ 14:00
TEMPO 2006/2014 BKN030
Clouds
  • Broken at 3,000' AGL
Becoming Sep-20 @ 06:00 to Sep-20 @ 14:00
BECMG 2006/2008 05010KT
Wind Visibility Clouds
50° at 10 knots Greater than 6 miles
  • Scattered at 3,000' AGL
From Sep-20 @ 06:00 to Sep-21 @ 00:00
FM200600 05010G20KT P6SM SCT030
Wind Visibility Clouds
50° at 10 knots
 Gusting to 20 knots
Greater than 6 miles
  • Scattered at 3,000' AGL
From Sep-20 @ 14:00 to Sep-20 @ 19:00
FM201400 08010KT P6SM SCT040
Wind Visibility Clouds
80° at 10 knots Greater than 6 miles
  • Scattered at 4,000' AGL
Becoming Sep-20 @ 19:00 to Sep-21 @ 00:00
BECMG 2019/2021 29008KT RMK NXT FCST BY 200600Z
Wind Visibility Clouds
290° at 8 knots Greater than 6 miles
  • Scattered at 4,000' AGL
TAF CYJT 192338Z 2000/2024 05008KT P6SM SCT020 TEMPO 2000/2006 BKN020 FM200600 05010G20KT P6SM SCT030 TEMPO 2006/2014 BKN030 BECMG 2006/2008 05010KT FM201400 08010KT P6SM SCT040 BECMG 2019/2021 29008KT RMK NXT FCST BY 200600Z
Issued Sep-19 @ 23:38 UTC
(an hour ago)
Valid From Sep-20 @ 00:00 UTC
(41 minutes ago)
Valid To Sep-21 @ 00:00 UTC
(in 23 hours)
Sep-20 @ 00:00 - Sep-20 @ 06:00
Wind Visibility
50° at 8 knots Greater than 6 miles
Clouds
  • Scattered at 2,000' AGL
Temporary Sep-20 @ 00:00 - Sep-20 @ 06:00
Clouds
  • Broken at 2,000' AGL
Temporary Sep-20 @ 06:00 - Sep-20 @ 14:00
Clouds
  • Broken at 3,000' AGL
Becoming Sep-20 @ 06:00 - Sep-20 @ 14:00
Wind Visibility
50° at 10 knots Greater than 6 miles
Clouds
  • Scattered at 3,000' AGL
From Sep-20 @ 06:00 - Sep-21 @ 00:00
Wind Visibility
50° at 10 knots
 Gusting to 20 knots
Greater than 6 miles
Clouds
  • Scattered at 3,000' AGL
From Sep-20 @ 14:00 - Sep-20 @ 19:00
Wind Visibility
80° at 10 knots Greater than 6 miles
Clouds
  • Scattered at 4,000' AGL
Becoming Sep-20 @ 19:00 - Sep-21 @ 00:00
Wind Visibility
290° at 8 knots Greater than 6 miles
Clouds
  • Scattered at 4,000' AGL